Latest Weather Observations for Gove Airport

IDD60801

Issued at 9:01 pm CST Sunday 1 May 2016 (issued every 30 minutes, with the page automatically refreshed every 10 minutes)

About weather observations | Map of weather stations | Latest weather observations for NT | Other Formats
Station Details ID: 014508 Name: GOVE AIRPORT Lat: -12.27 Lon: 136.82 Height: 51.6 m
Data from the previous 72 hours. | See also: Recent months at Gove Airport
Date/Time
CST
Temp
°C
App
Temp
°C
Dew
Point
Rel
Hum
%
Delta-T
°C
Wind Press
QNH
hPa
Press
MSL
hPa
Rain
since 9 am
mm
Dir
 
Spd
km/h
Gust
km/h
Spd
kts
Gust
kts
01/09:00pm 27.0 32.2 25.1 89 1.3 SE 7 9 4 5 1012.3 1012.0 2.0
01/08:30pm 27.2 32.6 25.4 90 1.3 ESE 7 9 4 5 1012.1 1011.8 2.0
01/08:00pm 27.6 32.9 25.2 87 1.7 ESE 7 9 4 5 1011.9 1011.6 2.0
01/07:30pm 28.0 32.5 25.2 85 2.0 E 11 15 6 8 1011.3 1011.0 2.0
01/07:00pm 28.1 32.1 25.1 84 2.1 E 13 15 7 8 1010.8 1010.5 2.0
01/06:30pm 28.4 32.4 25.0 82 2.4 E 13 17 7 9 1010.6 1010.3 2.0
01/06:00pm 28.6 32.1 24.9 80 2.6 E 15 20 8 11 1010.3 1010.0 2.0
01/05:30pm 28.8 31.9 24.8 79 2.8 E 17 24 9 13 1010.1 1009.7 2.0
01/05:00pm 29.1 32.8 25.1 79 2.8 E 15 24 8 13 1009.7 1009.3 2.0
01/04:30pm 29.4 32.1 25.0 77 3.1 E 20 28 11 15 1009.7 1009.3 2.0
01/04:00pm 29.5 31.3 24.8 76 3.3 E 24 32 13 17 1009.7 1009.3 2.0
01/03:30pm 29.9 31.6 24.6 73 3.7 E 24 33 13 18 1009.6 1009.2 2.0
01/03:00pm 30.3 31.9 25.1 73 3.7 E 26 33 14 18 1009.9 1009.5 2.0
01/02:30pm 30.0 31.3 24.6 73 3.8 E 26 39 14 21 1010.2 1009.8 2.0
01/02:00pm 30.0 31.1 24.9 74 3.6 E 28 35 15 19 1010.3 1010.0 2.0
01/01:30pm 29.9 31.5 25.2 76 3.3 ESE 26 39 14 21 1010.6 1010.3 2.0
01/01:00pm 29.8 32.3 25.3 77 3.2 E 22 28 12 15 1011.1 1010.8 2.0
01/12:40pm 29.8 33.0 25.6 78 3.0 E 19 24 10 13 1011.4 1011.1 2.0
01/12:30pm 29.2 32.6 25.8 82 2.4 ESE 19 28 10 15 1011.5 1011.2 2.0
01/12:08pm 28.6 34.3 26.4 88 1.6 E 9 13 5 7 1011.8 1011.5 2.0
01/12:00pm 28.2 33.7 26.1 88 1.5 ESE 9 13 5 7 1011.9 1011.6 2.0
01/11:30am 27.4 33.2 26.0 92 1.0 S 7 9 4 5 1012.4 1012.1 2.0
01/11:10am 26.8 32.6 25.7 94 0.8 S 6 7 3 4 1012.6 1012.3 2.0
01/11:00am 26.5 32.1 25.5 94 0.7 SSW 6 7 3 4 1012.7 1012.4 2.0
01/10:30am 25.9 32.0 25.0 95 0.6 ESE 2 7 1 4 1013.1 1012.8 2.0
01/10:17am 25.9 31.0 25.0 95 0.6 ENE 7 9 4 5 1013.5 1013.2 2.0
01/10:08am 25.7 30.3 24.8 95 0.6 E 9 11 5 6 1013.6 1013.3 1.8
01/10:00am 25.6 30.7 24.9 96 0.5 ESE 7 11 4 6 1013.6 1013.3 1.8
01/09:30am 25.5 29.5 25.1 98 0.3 ESE 13 17 7 9 1013.9 1013.6 1.2
01/09:11am 25.5 29.9 25.1 98 0.3 SE 11 13 6 7 1013.7 1013.3 0.2
01/09:05am 25.5 29.8 24.9 96 0.4 SE 11 13 6 7 1013.6 1013.2 0.0
01/09:02am 25.5 29.9 25.1 98 0.3 SE 11 13 6 7 1013.6 1013.2 0.0
01/09:00am 25.5 30.2 24.9 96 0.4 SE 9 11 5 6 1013.6 1013.2 9.2
01/08:30am 25.6 28.3 24.7 95 0.6 E 19 22 10 12 1013.5 1013.1 8.4
01/08:26am 25.6 28.4 24.9 96 0.5 E 19 22 10 12 1013.5 1013.1 8.0
01/08:12am 25.8 29.3 24.9 95 0.6 E 15 26 8 14 1013.4 1013.0 6.8
01/08:00am 25.7 28.4 24.8 95 0.6 E 19 28 10 15 1013.2 1012.8 6.6
01/07:46am 25.7 29.2 24.8 95 0.6 E 15 24 8 13 1012.9 1012.5 6.6
01/07:39am 25.7 28.8 24.8 95 0.6 E 17 22 9 12 1012.8 1012.4 6.6
01/07:37am 25.7 28.4 24.7 94 0.7 E 19 28 10 15 1012.8 1012.4 6.6
01/07:30am 25.8 29.1 25.1 96 0.5 E 17 28 9 15 1012.9 1012.5 6.4
01/07:27am 25.8 29.3 24.9 95 0.6 E 15 24 8 13 1012.8 1012.4 6.4
01/07:09am 25.8 29.7 24.9 95 0.6 E 13 19 7 10 1012.6 1012.2 5.6
01/07:00am 25.8 29.8 25.1 96 0.5 E 13 17 7 9 1012.5 1012.1 5.0
01/06:53am 25.8 30.2 25.1 96 0.5 E 11 15 6 8 1012.4 1012.0 4.8
01/06:38am 25.6 29.9 24.9 96 0.5 E 11 17 6 9 1012.3 1011.9 4.6
01/06:30am 25.6 29.4 24.7 95 0.6 E 13 17 7 9 1012.2 1011.8 4.6
01/06:21am 25.6 29.4 24.7 95 0.6 E 13 19 7 10 1011.9 1011.5 4.6
01/06:00am 25.5 28.5 24.6 95 0.6 ENE 17 26 9 14 1011.9 1011.5 4.6
01/05:57am 25.5 28.6 24.8 96 0.5 ENE 17 26 9 14 1011.9 1011.5 4.6
01/05:32am 25.4 27.2 24.8 96 0.4 E 24 33 13 18 1011.8 1011.4 3.8
01/05:30am 25.5 27.3 24.8 96 0.5 E 24 33 13 18 1011.8 1011.4 3.6
01/05:16am 25.5 29.0 24.8 96 0.5 E 15 37 8 20 1011.7 1011.3 2.2
01/05:00am 25.5 28.2 24.8 96 0.5 E 19 26 10 14 1011.5 1011.1 1.8
01/04:51am 25.7 29.9 24.8 95 0.6 E 11 19 6 10 1011.4 1011.0 1.0
01/04:45am 25.7 29.4 24.5 93 0.8 E 13 20 7 11 1011.3 1010.9 0.6
01/04:30am 25.6 28.8 24.4 93 0.8 NE 15 19 8 10 1011.1 1010.7 0.6
01/04:08am 25.6 28.1 24.4 93 0.8 ENE 19 28 10 15 1010.9 1010.5 0.6
01/04:00am 25.8 28.1 24.5 92 0.9 NE 20 28 11 15 1010.7 1010.3 0.6
01/03:59am 25.8 28.2 24.6 93 0.8 NE 20 28 11 15 1010.7 1010.3 0.6
01/03:36am 25.9 28.1 24.9 94 0.7 ENE 22 33 12 18 1010.5 1010.1 0.2
01/03:30am 26.2 28.0 24.9 92 0.9 NE 24 32 13 17 1010.6 1010.2 0.2
01/03:28am 26.3 27.6 24.7 91 1.1 NE 26 37 14 20 1010.6 1010.2 0.2
01/03:20am 26.7 30.2 24.8 89 1.3 ESE 15 37 8 20 1010.5 1010.1 0.2
01/03:00am 26.7 32.0 25.3 92 1.0 SE 7 9 4 5 1010.3 1009.9 0.2
01/02:30am 27.2 32.5 25.2 89 1.4 SE 7 9 4 5 1010.3 1009.9 0.2
01/02:00am 27.4 32.2 25.1 87 1.6 SE 9 13 5 7 1010.5 1010.1 0.2
01/01:30am 27.5 32.3 25.1 87 1.7 ESE 9 15 5 8 1010.8 1010.4 0.2
01/01:00am 27.5 32.5 25.4 88 1.5 ESE 9 13 5 7 1011.0 1010.6 0.2
01/12:30am 28.1 31.9 25.3 85 2.0 ESE 15 19 8 10 1011.3 1010.9 0.2
01/12:00am 28.3 31.8 24.9 82 2.4 ESE 15 20 8 11 1011.6 1011.2 0.2
 
Date/Time
CST
Temp
°C
App
Temp
°C
Dew
Point
Rel
Hum
%
Delta-T
°C
Wind Press
QNH
hPa
Press
MSL
hPa
Rain
since 9 am
mm
Dir
 
Spd
km/h
Gust
km/h
Spd
kts
Gust
kts
30/11:30pm 28.2 32.1 24.9 82 2.3 ESE 13 19 7 10 1011.7 1011.3 0.2
30/11:00pm 28.2 32.2 25.1 83 2.2 ESE 13 19 7 10 1011.7 1011.3 0.2
30/10:30pm 28.2 32.1 24.9 82 2.3 SE 13 19 7 10 1011.9 1011.5 0.2
30/10:00pm 28.3 32.3 25.0 82 2.3 ESE 13 17 7 9 1012.0 1011.6 0.2
30/09:30pm 28.3 32.7 25.0 82 2.3 ESE 11 15 6 8 1011.8 1011.4 0.2
30/09:00pm 28.4 32.0 25.0 82 2.4 ESE 15 19 8 10 1011.6 1011.2 0.2
30/08:30pm 28.5 32.4 24.9 81 2.5 ESE 13 20 7 11 1011.3 1010.9 0.2
30/08:00pm 28.6 32.6 25.0 81 2.5 ESE 13 19 7 10 1011.0 1010.6 0.2
30/07:30pm 28.7 32.4 25.1 81 2.5 ESE 15 19 8 10 1010.5 1010.1 0.2
30/07:00pm 28.7 32.9 25.3 82 2.4 ESE 13 19 7 10 1010.2 1009.8 0.2
30/06:30pm 29.0 32.8 25.3 80 2.6 ESE 15 19 8 10 1009.9 1009.5 0.2
30/06:00pm 29.2 32.6 25.2 79 2.8 ESE 17 24 9 13 1009.9 1009.5 0.2
30/05:30pm 29.4 33.6 24.8 76 3.2 ESE 11 17 6 9 1009.8 1009.4 0.2
30/05:00pm 29.7 32.4 24.1 72 3.9 E 17 20 9 11 1009.7 1009.3 0.2
30/04:30pm 30.3 33.7 25.2 74 3.6 E 17 22 9 12 1009.6 1009.2 0.2
30/04:00pm 31.0 33.5 24.7 69 4.4 E 20 28 11 15 1009.5 1009.1 0.2
30/03:30pm 31.1 32.8 24.1 66 4.9 E 22 33 12 18 1009.2 1008.8 0.2
30/03:00pm 31.5 33.1 24.5 66 4.9 E 24 33 13 18 1009.3 1008.9 0.2
30/02:30pm 31.8 34.0 24.9 67 4.9 ENE 22 33 12 18 1009.4 1009.0 0.2
30/02:00pm 31.1 33.1 24.5 68 4.6 ESE 22 32 12 17 1009.9 1009.5 0.2
30/01:30pm 31.7 33.0 24.0 63 5.4 E 24 33 13 18 1010.2 1009.8 0.2
30/01:00pm 31.1 32.4 24.7 68 4.5 ENE 26 35 14 19 1010.5 1010.1 0.2
30/12:30pm 31.4 33.7 25.0 69 4.5 ENE 22 32 12 17 1011.1 1010.7 0.2
30/12:00pm 30.9 33.1 24.9 70 4.2 NE 22 32 12 17 1011.7 1011.3 0.2
30/11:30am 31.1 33.8 25.0 70 4.3 NE 20 28 11 15 1012.1 1011.7 0.2
30/11:00am 30.8 34.0 25.0 71 4.1 ENE 17 26 9 14 1012.4 1012.0 0.2
30/10:30am 31.0 32.8 24.9 70 4.3 ENE 24 32 13 17 1012.8 1012.4 0.2
30/10:00am 30.8 32.8 24.5 69 4.4 ENE 22 33 12 18 1013.0 1012.6 0.0
30/09:30am 30.3 32.1 24.3 70 4.2 ENE 22 30 12 16 1013.1 1012.7 0.0
30/09:00am 30.1 32.3 24.2 70 4.1 E 20 28 11 15 1013.1 1012.7 1.0
30/08:30am 29.1 31.4 24.4 76 3.3 ENE 20 32 11 17 1012.9 1012.5 1.0
30/08:00am 28.7 31.6 24.5 78 2.9 E 17 26 9 14 1012.7 1012.3 1.0
30/07:30am 28.5 32.5 25.1 82 2.4 ENE 13 26 7 14 1012.3 1011.9 1.0
30/07:00am 27.9 30.9 24.6 82 2.3 E 17 28 9 15 1012.0 1011.6 1.0
30/06:30am 28.0 30.4 24.3 80 2.6 E 19 28 10 15 1011.7 1011.3 1.0
30/06:00am 27.7 30.2 24.7 84 2.1 E 20 28 11 15 1011.3 1010.9 1.0
30/05:30am 27.7 30.5 25.0 85 1.9 E 19 28 10 15 1011.1 1010.7 1.0
30/05:00am 27.3 30.0 25.0 87 1.6 ESE 20 28 11 15 1010.8 1010.4 1.0
30/04:31am 27.1 29.5 25.2 89 1.3 ESE 22 30 12 16 1010.6 1010.2 1.0
30/04:30am 27.1 29.5 25.2 89 1.3 ESE 22 30 12 16 1010.6 1010.2 1.0
30/04:13am 26.8 29.8 25.5 93 0.9 ESE 20 28 11 15 1010.6 1010.2 0.8
30/04:00am 26.9 30.1 25.5 92 1.0 ESE 19 24 10 13 1010.6 1010.2 0.4
30/03:48am 26.7 29.2 25.3 92 1.0 ESE 22 30 12 16 1010.8 1010.4 0.4
30/03:30am 27.5 29.3 24.9 86 1.8 ESE 24 37 13 20 1010.7 1010.3 0.4
30/03:00am 28.0 30.8 25.0 84 2.1 ESE 19 24 10 13 1010.5 1010.1 0.0
30/02:30am 28.2 30.7 24.8 82 2.4 ESE 20 32 11 17 1010.4 1010.0 0.0
30/02:00am 28.2 31.1 25.1 83 2.2 SE 19 26 10 14 1010.4 1010.0 0.0
30/01:30am 28.3 31.1 24.9 82 2.4 SE 19 26 10 14 1010.7 1010.3 0.0
30/01:00am 28.5 31.0 24.8 80 2.6 ESE 20 30 11 16 1011.2 1010.8 0.0
30/12:30am 28.4 31.6 25.0 82 2.4 SE 17 24 9 13 1011.0 1010.6 0.0
30/12:00am 28.3 30.6 24.4 79 2.7 SE 20 32 11 17 1011.0 1010.6 0.0
 
Date/Time
CST
Temp
°C
App
Temp
°C
Dew
Point
Rel
Hum
%
Delta-T
°C
Wind Press
QNH
hPa
Press
MSL
hPa
Rain
since 9 am
mm
Dir
 
Spd
km/h
Gust
km/h
Spd
kts
Gust
kts
29/11:30pm 28.0 31.4 25.2 85 2.0 SE 17 24 9 13 1011.0 1010.6 0.0
29/11:00pm 28.0 30.8 25.3 85 1.9 SE 20 28 11 15 1011.2 1010.8 0.0
29/10:30pm 27.7 30.7 25.3 87 1.7 SE 19 26 10 14 1011.7 1011.3 0.0
29/10:00pm 27.1 30.2 24.8 87 1.6 SE 17 22 9 12 1012.0 1011.6 0.0
29/09:30pm 26.9 30.7 24.7 88 1.5 SE 13 19 7 10 1011.8 1011.4 0.0
29/09:00pm 27.4 30.9 24.2 83 2.2 SE 13 19 7 10 1012.1 1011.7 0.0
29/08:30pm 27.6 31.2 24.3 82 2.3 SE 13 20 7 11 1012.3 1011.9 0.0
29/08:00pm 27.6 30.8 24.4 83 2.2 SE 15 19 8 10 1012.0 1011.6 0.0
29/07:30pm 27.5 31.3 24.0 81 2.4 ESE 11 15 6 8 1012.0 1011.6 0.0
29/07:00pm 27.7 31.1 24.1 81 2.5 E 13 17 7 9 1011.5 1011.1 0.0
29/06:30pm 27.9 30.6 24.2 80 2.6 ESE 17 20 9 11 1011.3 1010.9 0.0
29/06:00pm 28.3 31.2 24.4 79 2.7 ESE 17 20 9 11 1011.2 1010.8 0.0
29/05:30pm 28.4 29.9 24.4 79 2.8 ESE 24 33 13 18 1010.9 1010.5 0.0
29/05:00pm 28.9 32.1 24.9 79 2.8 SE 17 22 9 12 1010.2 1009.8 0.0
29/04:30pm 29.0 33.2 25.3 80 2.6 SE 13 19 7 10 1010.3 1009.9 0.0
29/04:00pm 30.0 32.2 24.3 71 4.0 ESE 20 26 11 14 1010.1 1009.7 0.0
29/03:30pm 31.1 33.0 24.4 67 4.7 SE 22 32 12 17 1009.8 1009.4 0.0
29/03:00pm 30.2 31.1 23.9 69 4.4 ESE 26 35 14 19 1010.1 1009.7 0.0
29/02:30pm 29.9 30.3 23.8 70 4.2 ESE 28 35 15 19 1010.3 1009.9 0.0
29/02:00pm 31.1 32.5 23.6 64 5.2 ESE 22 30 12 16 1010.1 1009.7 0.0
29/01:30pm 31.6 31.9 23.0 60 5.9 ESE 26 35 14 19 1010.4 1010.0 0.0
29/01:00pm 31.4 32.5 23.6 63 5.4 SE 24 35 13 19 1010.9 1010.5 0.0
29/12:30pm 31.5 32.9 24.8 67 4.7 ESE 26 33 14 18 1011.5 1011.1 0.0
29/12:00pm 30.9 32.5 24.5 68 4.5 ESE 24 32 13 17 1011.9 1011.5 0.0
29/11:30am 30.6 31.3 24.3 69 4.4 E 28 35 15 19 1012.5 1012.1 0.0
29/11:00am 30.3 31.8 24.9 73 3.8 ESE 26 33 14 18 1012.9 1012.5 0.0
29/10:30am 30.7 32.0 24.1 68 4.6 ESE 24 33 13 18 1012.9 1012.5 0.0
29/10:00am 30.3 33.0 25.0 73 3.7 SE 20 30 11 16 1012.9 1012.5 0.0
29/09:30am 28.8 30.5 24.7 78 2.9 ESE 24 41 13 22 1013.2 1012.8 0.0
29/09:29am 29.0 30.5 24.4 76 3.2 ESE 24 41 13 22 1013.1 1012.7 0.0
29/09:00am 29.9 32.6 24.2 71 4.0 SE 17 20 9 11 1013.0 1012.6 0.0
29/08:30am 29.2 33.6 24.5 76 3.3 SSE 9 13 5 7 1012.9 1012.5 0.0
29/08:00am 28.1 32.3 24.1 79 2.8 S 9 13 5 7 1012.6 1012.2 0.0
29/07:30am 26.1 30.7 24.1 89 1.4 S 7 9 4 5 1012.2 1011.8 0.0
29/07:00am 24.4 28.6 23.4 94 0.7 S 7 9 4 5 1011.8 1011.4 0.0
29/06:30am 24.2 28.3 23.3 95 0.6 S 7 9 4 5 1011.5 1011.1 0.0
29/06:00am 23.7 27.6 23.0 96 0.5 S 7 9 4 5 1011.2 1010.8 0.0
29/05:30am 23.7 28.9 22.8 95 0.6 CALM 0 0 0 0 1010.9 1010.5 0.0
29/05:00am 23.7 29.0 23.0 96 0.5 CALM 0 0 0 0 1010.7 1010.3 0.0
29/04:30am 23.8 28.6 22.9 95 0.6 S 2 6 1 3 1010.6 1010.2 0.0
29/04:00am 24.1 28.6 22.9 93 0.8 SSE 4 7 2 4 1010.5 1010.1 0.0
29/03:30am 24.4 28.6 23.2 93 0.8 SSE 6 7 3 4 1010.7 1010.3 0.0
29/03:00am 24.9 29.2 23.3 91 1.1 SSE 6 7 3 4 1010.8 1010.4 0.0
29/02:30am 24.9 29.2 23.3 91 1.1 SE 6 7 3 4 1011.1 1010.7 0.0
29/02:00am 25.4 29.5 23.3 88 1.4 SSE 7 9 4 5 1011.3 1010.9 0.0
29/01:30am 25.5 29.8 23.3 88 1.5 SSE 6 7 3 4 1011.6 1011.2 0.0
29/01:00am 26.1 29.8 23.2 84 2.0 SSE 9 9 5 5 1011.9 1011.5 0.0
29/12:30am 26.1 29.9 23.5 85 1.8 SE 9 11 5 6 1012.1 1011.7 0.0
29/12:00am 26.4 30.1 23.3 83 2.1 SE 9 11 5 6 1012.2 1011.8 0.0
 
Date/Time
CST
Temp
°C
App
Temp
°C
Dew
Point
Rel
Hum
%
Delta-T
°C
Wind Press
QNH
hPa
Press
MSL
hPa
Rain
since 9 am
mm
Dir
 
Spd
km/h
Gust
km/h
Spd
kts
Gust
kts
28/11:30pm 26.3 30.1 23.4 84 2.0 SE 9 11 5 6 1012.4 1012.0 0.0
28/11:00pm 26.4 30.2 23.5 84 2.0 SE 9 11 5 6 1012.6 1012.2 0.0
28/10:30pm 26.4 30.3 23.6 84 1.9 SE 9 11 5 6 1012.5 1012.1 0.0
28/10:00pm 26.4 30.8 23.8 85 1.8 SE 7 9 4 5 1012.5 1012.1 0.0
28/09:30pm 26.4 30.4 23.8 85 1.8 SE 9 11 5 6 1012.1 1011.7 0.0

Other Formats:

Comma delimited format used in spreadsheet applications
http://www.bom.gov.au/fwo/IDD60801/IDD60801.94150.axf

JavaScript Object Notation format (JSON) in row-major order
http://www.bom.gov.au/fwo/IDD60801/IDD60801.94150.json